Terminal Aerodrome Forecast
Issued by NWS

Home | Current Version | Previous Version | Text Only | Print | Product List | Glossary On
Versions: 1 2 3 4 5 6 7 8 9 10 11 12 13 14 15 16 17 18 19 20 21 22 23 24 25 26 27 28 29 30 31
000
FTUS44 KHGX 051735
TAFSGR
TAF
KSGR 051735Z 0518/0618 28006KT P6SM VCSH OVC006
     FM052000 35008KT P6SM VCSH BKN007 OVC015
     FM060200 29007KT P6SM SCT007 BKN015
     FM060700 26005KT P6SM MIFG FEW015
     FM061500 25008KT P6SM SKC=

USA.gov is the U.S. government's official web portal to all federal, state and local government web resources and services.